Time;durP1;ratioP1;P1;durP2;ratioP2;P2;SDS_P1;SDS_P2;PMS_P1;PMS_P2;Temp;Humidity;BMP_temperature;BMP_pressure;BME280_temperature;BME280_humidity;BME280_pressure;Samples;Min_cycle;Max_cycle;Signal;HPM_P1;HPM_P2
2022/12/11 00:01:07;;;;;;;;;;;0.00;99.90;;;;;;5026084;28;19913;-65
2022/12/11 00:03:33;;;;;;;;;;;0.00;99.90;;;;;;5024922;28;20783;-66
2022/12/11 00:05:58;;;;;;;;;;;0.00;99.90;;;;;;5019177;28;19925;-66
2022/12/11 00:08:25;;;;;;;;;;;0.00;99.90;;;;;;5025216;28;19913;-66
2022/12/11 00:10:52;;;;;;;;;;;0.00;99.90;;;;;;5025311;28;19943;-65
2022/12/11 00:13:17;;;;;;;;;;;0.00;99.90;;;;;;5024782;28;20319;-67
2022/12/11 00:15:43;;;;;;;;;;;0.00;99.90;;;;;;5018796;28;19967;-67
2022/12/11 00:18:11;;;;;;;;;;;0.00;99.90;;;;;;5026641;28;20258;-66
2022/12/11 00:20:37;;;;;;;;;;;0.00;99.90;;;;;;5025969;28;19956;-66
2022/12/11 00:23:03;;;;;;;;;;;0.00;99.90;;;;;;5020188;28;20063;-66
2022/12/11 00:25:29;;;;;;;;;;;0.00;99.90;;;;;;5026023;28;20417;-66
2022/12/11 00:27:56;;;;;;;;;;;0.00;99.90;;;;;;5007914;28;19909;-66
2022/12/11 00:30:21;;;;;;;;;;;0.00;99.90;;;;;;5026038;28;20393;-66
2022/12/11 00:32:47;;;;;;;;;;;0.00;99.90;;;;;;5016900;28;19952;-67
2022/12/11 00:35:13;;;;;;;;;;;0.10;99.90;;;;;;5024973;28;19992;-65
2022/12/11 00:37:39;;;;;;;;;;;0.10;99.90;;;;;;5024366;28;20007;-67
2022/12/11 00:40:05;;;;;;;;;;;0.10;99.90;;;;;;5025460;28;19948;-67
2022/12/11 00:42:30;;;;;;;;;;;0.00;99.90;;;;;;5019725;28;20472;-67
2022/12/11 00:44:56;;;;;;;;;;;0.00;99.90;;;;;;5019134;28;19913;-67
2022/12/11 00:47:23;;;;;;;;;;;0.00;99.90;;;;;;5025300;28;20394;-67
2022/12/11 00:49:49;;;;;;;;;;;0.00;99.90;;;;;;5024105;28;19913;-66
2022/12/11 00:52:16;;;;;;;;;;;0.00;99.90;;;;;;5019445;28;19916;-66
2022/12/11 00:54:42;;;;;;;;;;;0.00;99.90;;;;;;5023073;28;20323;-66
2022/12/11 00:57:09;;;;;;;;;;;0.00;99.90;;;;;;5021584;28;19932;-67
2022/12/11 00:59:34;;;;;;;;;;;0.00;99.90;;;;;;5015305;28;19924;-66
2022/12/11 01:02:00;;;;;;;;;;;0.00;99.90;;;;;;5027512;28;19956;-67
2022/12/11 01:04:25;;;;;;;;;;;0.10;99.90;;;;;;5023840;28;20215;-66
2022/12/11 01:06:51;;;;;;;;;;;0.00;99.90;;;;;;5025991;28;19913;-67
2022/12/11 01:12:13;;;;;;;;;;;0.00;99.90;;;;;;5040101;28;19944;-66
2022/12/11 01:14:39;;;;;;;;;;;0.00;99.90;;;;;;5024965;28;20686;-65
2022/12/11 01:17:05;;;;;;;;;;;0.00;99.90;;;;;;5024561;28;20008;-65
2022/12/11 01:19:32;;;;;;;;;;;0.00;99.90;;;;;;5022999;28;19939;-66
2022/12/11 01:21:58;;;;;;;;;;;0.00;99.90;;;;;;5023229;28;19970;-68
2022/12/11 01:24:24;;;;;;;;;;;0.00;99.90;;;;;;5021436;28;19914;-66
2022/12/11 01:26:50;;;;;;;;;;;0.00;99.90;;;;;;5010239;28;20003;-67
2022/12/11 01:29:16;;;;;;;;;;;0.00;99.90;;;;;;5025702;28;20011;-66
2022/12/11 01:31:41;;;;;;;;;;;0.00;99.90;;;;;;5010808;28;20319;-66
2022/12/11 01:34:08;;;;;;;;;;;-0.10;99.90;;;;;;5027923;28;19917;-67
2022/12/11 01:36:34;;;;;;;;;;;0.00;99.90;;;;;;5023805;28;19913;-66
2022/12/11 01:39:00;;;;;;;;;;;-0.10;99.90;;;;;;5008164;28;19932;-68
2022/12/11 01:41:25;;;;;;;;;;;-0.10;99.90;;;;;;5025051;28;19913;-67
2022/12/11 01:43:56;;;;;;;;;;;0.00;99.90;;;;;;5008406;28;19912;-67
2022/12/11 01:46:24;;;;;;;;;;;0.00;99.90;;;;;;5025453;28;19929;-66
2022/12/11 01:48:50;;;;;;;;;;;0.00;99.90;;;;;;5019885;28;19924;-66
2022/12/11 01:51:15;;;;;;;;;;;0.00;99.90;;;;;;5027500;28;19917;-66
2022/12/11 01:53:42;;;;;;;;;;;0.00;99.90;;;;;;5028426;28;19920;-67
2022/12/11 01:56:08;;;;;;;;;;;0.00;99.90;;;;;;5027750;28;20720;-68
2022/12/11 01:58:44;;;;;;;;;;;0.00;99.90;;;;;;5026974;28;19952;-66
2022/12/11 02:01:30;;;;;;;;;;;0.00;99.90;;;;;;5028333;28;19917;-66
2022/12/11 02:03:55;;;;;;;;;;;0.00;99.90;;;;;;5020172;28;19913;-66
2022/12/11 02:06:40;;;;;;;;;;;0.00;99.90;;;;;;5007949;28;19920;-65
2022/12/11 02:09:07;;;;;;;;;;;0.00;99.90;;;;;;4986111;28;19913;-67
2022/12/11 02:11:52;;;;;;;;;;;0.00;99.90;;;;;;5020614;28;19923;-66
2022/12/11 02:14:26;;;;;;;;;;;0.00;99.90;;;;;;5026956;28;20346;-66
2022/12/11 02:16:58;;;;;;;;;;;0.00;99.90;;;;;;5026256;28;19913;-66
2022/12/11 02:19:23;;;;;;;;;;;0.00;99.90;;;;;;5027146;28;19960;-66
2022/12/11 02:21:50;;;;;;;;;;;0.00;99.90;;;;;;5027117;28;20329;-66
2022/12/11 02:24:25;;;;;;;;;;;0.00;99.90;;;;;;5021926;28;19914;-66
2022/12/11 02:26:56;;;;;;;;;;;0.00;99.90;;;;;;5027261;28;20000;-66
2022/12/11 02:29:36;;;;;;;;;;;0.00;99.90;;;;;;5026769;28;19924;-66
2022/12/11 02:32:09;;;;;;;;;;;0.00;99.90;;;;;;5021910;28;19917;-66
2022/12/11 02:34:42;;;;;;;;;;;-0.10;99.90;;;;;;5025594;28;19913;-66
2022/12/11 02:37:20;;;;;;;;;;;0.00;99.90;;;;;;5021476;28;19920;-65
2022/12/11 02:39:46;;;;;;;;;;;-0.10;99.90;;;;;;5026331;28;20005;-67
2022/12/11 02:42:13;;;;;;;;;;;-0.10;99.90;;;;;;5027638;28;19917;-66
2022/12/11 02:44:38;;;;;;;;;;;-0.10;99.90;;;;;;5023705;28;19913;-67
2022/12/11 02:47:05;;;;;;;;;;;-0.10;99.90;;;;;;5026330;28;19913;-67
2022/12/11 02:49:31;;;;;;;;;;;-0.10;99.90;;;;;;5020957;28;20403;-66
2022/12/11 02:51:58;;;;;;;;;;;0.00;99.90;;;;;;5026928;28;20027;-67
2022/12/11 02:54:29;;;;;;;;;;;-0.10;99.90;;;;;;5010090;28;19963;-67
2022/12/11 02:57:03;;;;;;;;;;;-0.10;99.90;;;;;;5026156;28;19924;-66
2022/12/11 02:59:36;;;;;;;;;;;-0.10;99.90;;;;;;5025821;28;20347;-67
2022/12/11 03:02:01;;;;;;;;;;;-0.10;99.90;;;;;;5021703;28;19996;-67
2022/12/11 03:04:27;;;;;;;;;;;-0.10;99.90;;;;;;5024169;28;20330;-67
2022/12/11 03:06:54;;;;;;;;;;;-0.10;99.90;;;;;;5013960;28;19920;-66
2022/12/11 03:09:20;;;;;;;;;;;-0.10;99.90;;;;;;5025077;28;19917;-66
2022/12/11 03:11:46;;;;;;;;;;;-0.10;99.90;;;;;;5025165;28;20489;-68
2022/12/11 03:14:12;;;;;;;;;;;-0.10;99.90;;;;;;5023228;28;20603;-68
2022/12/11 03:16:39;;;;;;;;;;;-0.10;99.90;;;;;;5027190;28;20487;-67
2022/12/11 03:19:23;;;;;;;;;;;-0.10;99.90;;;;;;5020205;28;19913;-67
2022/12/11 03:21:51;;;;;;;;;;;-0.20;99.90;;;;;;5024988;28;20641;-67
2022/12/11 03:24:38;;;;;;;;;;;-0.20;99.90;;;;;;5022796;28;19917;-68
2022/12/11 03:27:06;;;;;;;;;;;-0.20;99.90;;;;;;5020294;28;19967;-67
2022/12/11 03:29:35;;;;;;;;;;;-0.20;99.90;;;;;;5023785;28;19917;-67
2022/12/11 03:32:07;;;;;;;;;;;-0.20;99.90;;;;;;5009590;28;20628;-66
2022/12/11 03:34:38;;;;;;;;;;;-0.30;99.90;;;;;;5009699;28;20274;-67
2022/12/11 03:37:03;;;;;;;;;;;-0.30;99.90;;;;;;5016825;28;19927;-66
2022/12/11 03:39:34;;;;;;;;;;;-0.20;99.90;;;;;;5014430;28;19925;-66
2022/12/11 03:42:00;;;;;;;;;;;-0.20;99.90;;;;;;5019998;28;19917;-66
2022/12/11 03:44:26;;;;;;;;;;;-0.20;99.90;;;;;;5031348;28;19916;-66
2022/12/11 03:46:57;;;;;;;;;;;-0.20;99.90;;;;;;5025700;28;19913;-67
2022/12/11 03:49:25;;;;;;;;;;;-0.20;99.90;;;;;;5022437;28;19994;-65
2022/12/11 03:51:52;;;;;;;;;;;-0.20;99.90;;;;;;5024593;28;19925;-67
2022/12/11 03:54:18;;;;;;;;;;;-0.20;99.90;;;;;;5007989;28;19920;-67
2022/12/11 03:56:44;;;;;;;;;;;-0.20;99.90;;;;;;5004965;28;20045;-67
2022/12/11 03:59:10;;;;;;;;;;;-0.20;99.90;;;;;;5015665;28;19921;-68
2022/12/11 04:01:36;;;;;;;;;;;-0.20;99.90;;;;;;5025648;28;19920;-68
2022/12/11 04:04:02;;;;;;;;;;;-0.20;99.90;;;;;;5026196;28;19912;-67
2022/12/11 04:06:27;;;;;;;;;;;-0.20;99.90;;;;;;5007465;28;19924;-67
2022/12/11 04:08:54;;;;;;;;;;;-0.20;99.90;;;;;;5026203;28;20234;-67
2022/12/11 04:11:33;;;;;;;;;;;-0.20;99.90;;;;;;5025502;28;20015;-66
2022/12/11 04:16:46;;;;;;;;;;;-0.30;99.90;;;;;;5021789;28;19932;-67
2022/12/11 04:24:43;;;;;;;;;;;-0.20;99.90;;;;;;5025989;28;20377;-67
2022/12/11 04:27:09;;;;;;;;;;;-0.40;99.90;;;;;;5025272;28;19923;-67
2022/12/11 04:29:34;;;;;;;;;;;-0.40;99.90;;;;;;5008034;28;19920;-68
2022/12/11 04:32:01;;;;;;;;;;;-0.30;99.90;;;;;;5019727;28;19921;-67
2022/12/11 04:34:27;;;;;;;;;;;-0.30;99.90;;;;;;5026465;28;19919;-67
2022/12/11 04:36:53;;;;;;;;;;;-0.30;99.90;;;;;;5025088;28;20681;-68
2022/12/11 04:39:18;;;;;;;;;;;-0.30;99.90;;;;;;5025767;28;19920;-68
2022/12/11 04:41:45;;;;;;;;;;;-0.30;99.90;;;;;;5008596;28;20242;-68
2022/12/11 04:44:14;;;;;;;;;;;-0.30;99.90;;;;;;5025546;28;19913;-68
2022/12/11 04:46:39;;;;;;;;;;;-0.30;99.90;;;;;;5021374;28;20682;-66
2022/12/11 04:49:05;;;;;;;;;;;-0.30;99.90;;;;;;5024693;28;19913;-66
2022/12/11 04:51:32;;;;;;;;;;;-0.40;99.90;;;;;;5008877;28;20011;-67
2022/12/11 04:53:58;;;;;;;;;;;-0.40;99.90;;;;;;5020834;28;19995;-67
2022/12/11 04:56:24;;;;;;;;;;;-0.40;99.90;;;;;;5025833;28;19917;-66
2022/12/11 04:58:49;;;;;;;;;;;-0.30;99.90;;;;;;5009971;28;19928;-68
2022/12/11 05:01:20;;;;;;;;;;;-0.30;99.90;;;;;;5018733;28;19913;-67
2022/12/11 05:03:45;;;;;;;;;;;-0.30;99.90;;;;;;5028576;28;20310;-67
2022/12/11 05:06:11;;;;;;;;;;;-0.30;99.90;;;;;;5011634;28;19913;-67
2022/12/11 05:08:37;;;;;;;;;;;-0.30;99.90;;;;;;5028389;28;19999;-66
2022/12/11 05:11:04;;;;;;;;;;;-0.30;99.90;;;;;;5027373;28;19971;-67
2022/12/11 05:13:30;;;;;;;;;;;-0.30;99.90;;;;;;5012865;28;20070;-67
2022/12/11 05:15:56;;;;;;;;;;;-0.40;99.90;;;;;;5011555;28;19925;-66
2022/12/11 05:18:22;;;;;;;;;;;-0.40;99.90;;;;;;5007493;28;19921;-67
2022/12/11 05:20:57;;;;;;;;;;;-0.30;99.90;;;;;;5024211;28;19913;-68
2022/12/11 05:23:23;;;;;;;;;;;-0.40;99.90;;;;;;5031071;28;19943;-66
2022/12/11 05:25:52;;;;;;;;;;;-0.40;99.90;;;;;;5013240;28;20307;-66
2022/12/11 05:28:17;;;;;;;;;;;-0.30;99.90;;;;;;5028840;28;19961;-67
2022/12/11 05:30:43;;;;;;;;;;;-0.30;99.90;;;;;;5013013;28;19973;-68
2022/12/11 05:33:09;;;;;;;;;;;-0.30;99.90;;;;;;5027044;28;19913;-66
2022/12/11 05:35:34;;;;;;;;;;;-0.30;99.90;;;;;;5030642;28;19916;-66
2022/12/11 05:38:00;;;;;;;;;;;-0.30;99.90;;;;;;5028105;28;20016;-67
2022/12/11 05:40:25;;;;;;;;;;;-0.30;99.90;;;;;;5027579;28;19917;-67
2022/12/11 05:42:51;;;;;;;;;;;-0.30;99.90;;;;;;4994112;28;19924;-67
2022/12/11 05:45:17;;;;;;;;;;;-0.30;99.90;;;;;;5024751;28;19918;-67
2022/12/11 05:47:42;;;;;;;;;;;-0.30;99.90;;;;;;5026297;28;19909;-67
2022/12/11 05:50:09;;;;;;;;;;;-0.40;99.90;;;;;;5030736;28;19920;-67
2022/12/11 05:52:35;;;;;;;;;;;-0.40;99.90;;;;;;5030781;28;19971;-66
2022/12/11 05:55:00;;;;;;;;;;;-0.30;99.90;;;;;;5031816;28;19920;-68
2022/12/11 05:57:26;;;;;;;;;;;-0.30;99.90;;;;;;5026025;28;20027;-67
2022/12/11 05:59:52;;;;;;;;;;;-0.40;99.90;;;;;;5030794;28;19913;-67
2022/12/11 06:02:17;;;;;;;;;;;-0.30;99.90;;;;;;5031456;28;19920;-67
2022/12/11 06:04:44;;;;;;;;;;;-0.30;99.90;;;;;;5025411;28;20347;-67
2022/12/11 06:07:10;;;;;;;;;;;-0.30;99.90;;;;;;5029737;28;20223;-66
2022/12/11 06:09:35;;;;;;;;;;;-0.40;99.90;;;;;;5029483;28;19916;-67
2022/12/11 06:12:01;;;;;;;;;;;-0.40;99.90;;;;;;5028660;28;19916;-67
2022/12/11 06:14:27;;;;;;;;;;;-0.40;99.90;;;;;;5013292;28;19948;-66
2022/12/11 06:16:52;;;;;;;;;;;-0.30;99.90;;;;;;5033052;28;19952;-66
2022/12/11 06:19:18;;;;;;;;;;;-0.40;99.90;;;;;;5015583;28;20000;-68
2022/12/11 06:21:44;;;;;;;;;;;-0.40;99.90;;;;;;5014263;28;19912;-67
2022/12/11 06:24:09;;;;;;;;;;;-0.40;99.90;;;;;;5002813;28;19912;-68
2022/12/11 06:26:35;;;;;;;;;;;-0.40;99.90;;;;;;5027392;28;20036;-68
2022/12/11 06:29:01;;;;;;;;;;;-0.30;99.90;;;;;;5014113;28;20331;-67
2022/12/11 06:31:26;;;;;;;;;;;-0.30;99.90;;;;;;5026367;28;19921;-66
2022/12/11 06:33:53;;;;;;;;;;;-0.30;99.90;;;;;;5025341;28;19913;-67
2022/12/11 06:36:19;;;;;;;;;;;-0.30;99.90;;;;;;5029394;28;19917;-67
2022/12/11 06:38:45;;;;;;;;;;;-0.40;99.90;;;;;;5031254;28;20399;-66
2022/12/11 06:41:11;;;;;;;;;;;-0.40;99.90;;;;;;5028592;28;19917;-66
2022/12/11 06:43:37;;;;;;;;;;;-0.40;99.90;;;;;;5028648;28;19913;-66
2022/12/11 06:46:06;;;;;;;;;;;-0.40;99.90;;;;;;5006368;28;19920;-66
2022/12/11 06:48:31;;;;;;;;;;;-0.40;99.90;;;;;;5029027;28;20015;-66
2022/12/11 06:50:57;;;;;;;;;;;-0.40;99.90;;;;;;5029621;28;20019;-66
2022/12/11 06:53:22;;;;;;;;;;;-0.40;99.90;;;;;;5030353;28;19989;-66
2022/12/11 06:55:48;;;;;;;;;;;-0.50;99.90;;;;;;5028880;28;19909;-67
2022/12/11 06:58:14;;;;;;;;;;;-0.50;99.90;;;;;;5026356;28;19914;-66
2022/12/11 07:00:39;;;;;;;;;;;-0.40;99.90;;;;;;5029733;28;19948;-66
2022/12/11 07:03:05;;;;;;;;;;;-0.40;99.90;;;;;;5024300;28;19921;-66
2022/12/11 07:05:31;;;;;;;;;;;-0.40;99.90;;;;;;5013336;28;19917;-67
2022/12/11 07:07:57;;;;;;;;;;;-0.40;99.90;;;;;;5020153;28;19921;-66
2022/12/11 07:10:22;;;;;;;;;;;-0.50;99.90;;;;;;5013115;28;19952;-66
2022/12/11 07:12:48;;;;;;;;;;;-0.50;99.90;;;;;;5028922;28;19913;-65
2022/12/11 07:15:14;;;;;;;;;;;-0.50;99.90;;;;;;5030887;28;19967;-67
2022/12/11 07:17:39;;;;;;;;;;;-0.50;99.90;;;;;;5029911;28;20000;-68
2022/12/11 07:20:05;;;;;;;;;;;-0.60;99.90;;;;;;5027683;28;19974;-66
2022/12/11 07:22:31;;;;;;;;;;;-0.50;99.90;;;;;;5010174;28;19917;-66
2022/12/11 07:25:00;;;;;;;;;;;-0.50;99.90;;;;;;5029496;28;20018;-66
2022/12/11 07:27:26;;;;;;;;;;;-0.50;99.90;;;;;;5030508;28;20323;-66
2022/12/11 07:29:51;;;;;;;;;;;-0.50;99.90;;;;;;5024473;28;19972;-66
2022/12/11 07:32:17;;;;;;;;;;;-0.50;99.90;;;;;;5029407;28;19955;-67
2022/12/11 07:34:42;;;;;;;;;;;-0.60;99.90;;;;;;5029579;28;20234;-66
2022/12/11 07:37:08;;;;;;;;;;;-0.60;99.90;;;;;;5024527;28;20327;-67
2022/12/11 07:39:34;;;;;;;;;;;-0.50;99.90;;;;;;5022592;28;19921;-68
2022/12/11 07:41:59;;;;;;;;;;;-0.50;99.90;;;;;;5024678;28;20342;-67
2022/12/11 07:44:25;;;;;;;;;;;-0.50;99.90;;;;;;5010623;28;19916;-68
2022/12/11 07:46:50;;;;;;;;;;;-0.50;99.90;;;;;;5027336;28;19947;-68
2022/12/11 07:49:16;;;;;;;;;;;-0.50;99.90;;;;;;5028984;28;19917;-68
2022/12/11 07:51:42;;;;;;;;;;;-0.50;99.90;;;;;;5025618;28;19939;-68
2022/12/11 07:54:10;;;;;;;;;;;-0.50;99.90;;;;;;5019885;28;19996;-67
2022/12/11 07:56:36;;;;;;;;;;;-0.50;99.90;;;;;;5022886;28;19963;-67
2022/12/11 07:59:02;;;;;;;;;;;-0.50;99.90;;;;;;5022298;28;19909;-66
2022/12/11 08:01:28;;;;;;;;;;;-0.50;99.90;;;;;;5011975;28;20000;-66
2022/12/11 08:03:54;;;;;;;;;;;-0.50;99.90;;;;;;5009011;28;20007;-67
2022/12/11 08:06:20;;;;;;;;;;;-0.50;99.90;;;;;;5007893;28;20039;-66
2022/12/11 08:08:46;;;;;;;;;;;-0.50;99.90;;;;;;5011771;28;19967;-66
2022/12/11 08:11:12;;;;;;;;;;;-0.50;99.90;;;;;;5025944;28;19913;-66
2022/12/11 08:13:37;;;;;;;;;;;-0.50;99.90;;;;;;5028046;28;19956;-66
2022/12/11 08:16:07;;;;;;;;;;;-0.50;99.90;;;;;;5025135;28;19952;-66
2022/12/11 08:18:33;;;;;;;;;;;-0.50;99.90;;;;;;5028253;28;19952;-66
2022/12/11 08:20:58;;;;;;;;;;;-0.50;99.90;;;;;;5028620;28;19940;-66
2022/12/11 08:23:24;;;;;;;;;;;-0.50;99.90;;;;;;5011287;28;20294;-68
2022/12/11 08:25:50;;;;;;;;;;;-0.40;99.90;;;;;;5028379;28;19913;-67
2022/12/11 08:28:15;;;;;;;;;;;-0.40;99.90;;;;;;5028630;28;20335;-67
2022/12/11 08:30:41;;;;;;;;;;;-0.50;99.90;;;;;;5024636;28;20020;-68
2022/12/11 08:33:06;;;;;;;;;;;-0.50;99.90;;;;;;5012371;28;20388;-66
2022/12/11 08:35:32;;;;;;;;;;;-0.50;99.90;;;;;;5032440;28;19913;-68
2022/12/11 08:37:58;;;;;;;;;;;-0.60;99.90;;;;;;5031475;28;20231;-66
2022/12/11 08:40:23;;;;;;;;;;;-0.60;99.90;;;;;;5014123;28;20253;-67
2022/12/11 08:42:49;;;;;;;;;;;-0.60;99.90;;;;;;5026689;28;20629;-66
2022/12/11 08:45:14;;;;;;;;;;;-0.60;99.90;;;;;;5032328;28;20235;-66
2022/12/11 08:47:40;;;;;;;;;;;-0.70;99.90;;;;;;5020637;28;20007;-67
2022/12/11 08:50:06;;;;;;;;;;;-0.60;99.90;;;;;;5033582;28;20319;-66
2022/12/11 08:52:33;;;;;;;;;;;-0.70;99.90;;;;;;5030002;28;19913;-66
2022/12/11 08:54:59;;;;;;;;;;;-0.70;99.90;;;;;;5008282;28;20596;-67
2022/12/11 08:57:24;;;;;;;;;;;-0.80;99.90;;;;;;5030227;28;19923;-66
2022/12/11 08:59:50;;;;;;;;;;;-0.80;99.90;;;;;;5031751;28;20000;-68
2022/12/11 09:02:15;;;;;;;;;;;-0.90;99.90;;;;;;5029303;28;20377;-66
2022/12/11 09:04:41;;;;;;;;;;;-0.90;99.90;;;;;;5026022;28;19971;-66
2022/12/11 09:07:07;;;;;;;;;;;-0.90;99.90;;;;;;5030404;28;19912;-67
2022/12/11 09:09:32;;;;;;;;;;;-0.90;99.90;;;;;;5031099;28;19959;-66
2022/12/11 09:12:00;;;;;;;;;;;-0.80;99.90;;;;;;5025552;28;19917;-68
2022/12/11 09:14:26;;;;;;;;;;;-0.80;99.90;;;;;;5031889;28;19917;-67
2022/12/11 09:16:51;;;;;;;;;;;-0.80;99.90;;;;;;5010973;28;20350;-67
2022/12/11 09:19:17;;;;;;;;;;;-0.80;99.90;;;;;;5031547;28;19966;-70
2022/12/11 09:21:42;;;;;;;;;;;-0.90;99.90;;;;;;5011109;28;19999;-67
2022/12/11 09:24:08;;;;;;;;;;;-1.00;99.90;;;;;;5031885;28;20251;-66
2022/12/11 09:26:34;;;;;;;;;;;-0.80;99.90;;;;;;5030776;28;20357;-69
2022/12/11 09:29:02;;;;;;;;;;;-0.70;99.90;;;;;;5027289;28;19940;-67
2022/12/11 09:31:28;;;;;;;;;;;-0.50;99.90;;;;;;5027937;28;19920;-68
2022/12/11 09:33:55;;;;;;;;;;;-0.40;99.90;;;;;;5014991;28;19913;-69
2022/12/11 09:36:21;;;;;;;;;;;-0.30;99.90;;;;;;5010684;28;20341;-67
2022/12/11 09:38:46;;;;;;;;;;;-0.30;99.90;;;;;;5024027;28;19921;-66
2022/12/11 09:41:21;;;;;;;;;;;-0.40;99.90;;;;;;5031456;28;20005;-68
2022/12/11 09:43:56;;;;;;;;;;;-0.20;99.90;;;;;;5031096;28;19920;-69
2022/12/11 09:46:22;;;;;;;;;;;-0.10;99.90;;;;;;5029094;28;19920;-69
2022/12/11 09:48:47;;;;;;;;;;;0.00;99.90;;;;;;5031473;28;19970;-68
2022/12/11 09:51:13;;;;;;;;;;;0.10;99.90;;;;;;5031179;28;20476;-68
2022/12/11 09:53:38;;;;;;;;;;;0.20;99.90;;;;;;5025168;28;19914;-69
2022/12/11 09:56:04;;;;;;;;;;;0.20;99.90;;;;;;5031133;28;19920;-68
2022/12/11 09:58:38;;;;;;;;;;;0.40;99.90;;;;;;5031185;28;19913;-68
2022/12/11 10:01:06;;;;;;;;;;;0.60;99.90;;;;;;5025302;28;19910;-68
2022/12/11 10:03:32;;;;;;;;;;;0.80;99.90;;;;;;5030663;28;19931;-68
2022/12/11 10:06:17;;;;;;;;;;;1.00;99.90;;;;;;5032471;28;19912;-69
2022/12/11 10:08:57;;;;;;;;;;;1.10;99.90;;;;;;5032647;28;20442;-72
2022/12/11 10:11:26;;;;;;;;;;;1.20;99.90;;;;;;5031618;28;20238;-73
2022/12/11 10:14:10;;;;;;;;;;;1.40;99.90;;;;;;5032380;28;19976;-72
2022/12/11 10:16:40;;;;;;;;;;;1.50;99.90;;;;;;5028163;28;19987;-72
2022/12/11 10:19:10;;;;;;;;;;;1.60;99.90;;;;;;5031004;28;20274;-72
2022/12/11 10:21:38;;;;;;;;;;;1.70;99.90;;;;;;5009969;28;19913;-72
2022/12/11 10:24:04;;;;;;;;;;;1.90;99.90;;;;;;5030441;28;20384;-72
2022/12/11 10:26:30;;;;;;;;;;;2.10;99.90;;;;;;5030249;28;19912;-72
2022/12/11 10:28:59;;;;;;;;;;;2.30;99.90;;;;;;5030807;28;19971;-72
2022/12/11 10:31:34;;;;;;;;;;;2.60;99.90;;;;;;5009678;28;19916;-72
2022/12/11 10:34:00;;;;;;;;;;;2.80;99.90;;;;;;4997065;28;19951;-73
2022/12/11 10:36:27;;;;;;;;;;;3.00;99.90;;;;;;5030123;28;19916;-73
2022/12/11 10:38:53;;;;;;;;;;;3.10;99.90;;;;;;5013421;28;19978;-72
2022/12/11 10:41:20;;;;;;;;;;;3.40;99.90;;;;;;5007245;28;19913;-72
2022/12/11 10:43:49;;;;;;;;;;;3.70;99.90;;;;;;5030422;28;19924;-72
2022/12/11 10:46:19;;;;;;;;;;;3.90;99.90;;;;;;5031330;28;19912;-72
2022/12/11 10:49:02;;;;;;;;;;;4.10;97.00;;;;;;5003306;28;19921;-73
2022/12/11 10:51:31;;;;;;;;;;;4.40;99.90;;;;;;5031045;28;19917;-72
2022/12/11 10:53:57;;;;;;;;;;;4.80;99.90;;;;;;5030443;28;19909;-72
2022/12/11 10:56:29;;;;;;;;;;;5.20;99.50;;;;;;5029475;28;19917;-72
2022/12/11 10:58:55;;;;;;;;;;;5.40;99.50;;;;;;5029640;28;20004;-72
2022/12/11 11:01:21;;;;;;;;;;;5.50;94.00;;;;;;5007261;28;20052;-72
2022/12/11 11:03:50;;;;;;;;;;;6.00;96.70;;;;;;5026351;28;20247;-72
2022/12/11 11:06:16;;;;;;;;;;;6.30;95.60;;;;;;5009576;28;19917;-72
2022/12/11 11:08:43;;;;;;;;;;;6.50;95.20;;;;;;5009703;28;20595;-72
2022/12/11 11:11:17;;;;;;;;;;;6.70;95.10;;;;;;5012861;28;19917;-72
2022/12/11 11:13:44;;;;;;;;;;;6.60;93.20;;;;;;5023745;28;19917;-72
2022/12/11 11:16:11;;;;;;;;;;;6.90;93.00;;;;;;5009821;28;19952;-71
2022/12/11 11:18:37;;;;;;;;;;;7.00;91.70;;;;;;5029317;28;19913;-71
2022/12/11 11:21:02;;;;;;;;;;;6.90;91.70;;;;;;5024297;28;19913;-71
2022/12/11 11:23:28;;;;;;;;;;;6.70;91.40;;;;;;5024785;28;20583;-71
2022/12/11 11:25:57;;;;;;;;;;;6.80;92.80;;;;;;5003941;28;19913;-71
2022/12/11 11:28:24;;;;;;;;;;;7.10;91.60;;;;;;5022837;28;19913;-72
2022/12/11 11:30:58;;;;;;;;;;;7.40;92.10;;;;;;5026742;28;19968;-72
2022/12/11 11:33:24;;;;;;;;;;;7.60;89.10;;;;;;5026524;28;20286;-72
2022/12/11 11:36:05;;;;;;;;;;;7.50;88.80;;;;;;5009042;28;20000;-71
2022/12/11 11:38:35;;;;;;;;;;;7.50;82.70;;;;;;5025034;28;19921;-70
2022/12/11 11:41:20;;;;;;;;;;;7.40;82.00;;;;;;4993599;28;19917;-71
2022/12/11 11:43:45;;;;;;;;;;;7.10;79.10;;;;;;5025523;28;19909;-71
2022/12/11 11:46:14;;;;;;;;;;;7.20;81.90;;;;;;5026384;28;20250;-71
2022/12/11 11:48:52;;;;;;;;;;;6.90;82.50;;;;;;5024283;28;20448;-70
2022/12/11 11:51:26;;;;;;;;;;;6.80;86.00;;;;;;5023893;28;19925;-70
2022/12/11 11:53:53;;;;;;;;;;;6.90;87.00;;;;;;5023742;28;19913;-71
2022/12/11 11:56:20;;;;;;;;;;;6.90;86.30;;;;;;5006945;28;19966;-74
2022/12/11 11:58:56;;;;;;;;;;;6.80;83.70;;;;;;5024914;28;19923;-74
2022/12/11 12:01:22;;;;;;;;;;;6.60;85.80;;;;;;5026246;28;19913;-74
2022/12/11 12:03:47;;;;;;;;;;;6.50;84.70;;;;;;5024682;28;19923;-73
2022/12/11 12:06:26;;;;;;;;;;;6.50;85.80;;;;;;5023877;28;19924;-74
2022/12/11 12:08:52;;;;;;;;;;;6.60;83.10;;;;;;5003930;28;20005;-74
2022/12/11 12:11:17;;;;;;;;;;;6.70;86.10;;;;;;5024717;28;19921;-74
2022/12/11 12:14:05;;;;;;;;;;;6.70;85.60;;;;;;5026528;28;20322;-75
2022/12/11 12:16:33;;;;;;;;;;;6.60;81.50;;;;;;5019193;28;19912;-73
2022/12/11 12:19:06;;;;;;;;;;;6.60;83.70;;;;;;5027273;28;19909;-74
2022/12/11 12:21:37;;;;;;;;;;;6.50;80.60;;;;;;5026718;28;19913;-72
2022/12/11 12:24:09;;;;;;;;;;;5.80;83.20;;;;;;5023704;28;19913;-75
2022/12/11 12:26:36;;;;;;;;;;;5.40;81.60;;;;;;5025860;28;19913;-73
2022/12/11 12:29:11;;;;;;;;;;;5.30;82.90;;;;;;5025548;28;19944;-74
2022/12/11 12:31:47;;;;;;;;;;;5.40;83.50;;;;;;5024011;28;19928;-73
2022/12/11 12:34:16;;;;;;;;;;;5.50;84.90;;;;;;5008713;28;19909;-73
2022/12/11 12:36:52;;;;;;;;;;;5.50;84.20;;;;;;5021555;28;19924;-73
2022/12/11 12:39:36;;;;;;;;;;;5.50;85.60;;;;;;5024353;28;20257;-73
2022/12/11 12:42:06;;;;;;;;;;;5.70;86.90;;;;;;5026873;28;20287;-73
2022/12/11 12:44:34;;;;;;;;;;;5.80;83.80;;;;;;5017931;28;19920;-74
2022/12/11 12:47:10;;;;;;;;;;;5.80;86.50;;;;;;5025314;28;20079;-74
2022/12/11 12:49:37;;;;;;;;;;;5.80;85.80;;;;;;5025070;28;19913;-73
2022/12/11 12:52:03;;;;;;;;;;;5.60;84.20;;;;;;5027095;28;19928;-74
2022/12/11 12:54:29;;;;;;;;;;;5.40;86.20;;;;;;5006634;28;19909;-72
2022/12/11 12:56:55;;;;;;;;;;;5.40;87.60;;;;;;5027908;28;19912;-71
2022/12/11 12:59:22;;;;;;;;;;;5.20;88.00;;;;;;5021623;28;19924;-72
2022/12/11 13:01:55;;;;;;;;;;;5.10;87.20;;;;;;5027194;28;19974;-71
2022/12/11 13:04:30;;;;;;;;;;;4.70;88.40;;;;;;5021783;28;20617;-71
2022/12/11 13:06:55;;;;;;;;;;;4.60;88.50;;;;;;5028538;28;20311;-71
2022/12/11 13:09:25;;;;;;;;;;;4.30;89.40;;;;;;5029009;28;19944;-71
2022/12/11 13:11:56;;;;;;;;;;;4.10;90.00;;;;;;5018199;28;19921;-72
2022/12/11 13:14:26;;;;;;;;;;;3.90;90.50;;;;;;5026246;28;19924;-72
2022/12/11 13:16:52;;;;;;;;;;;3.80;90.90;;;;;;5006874;28;19912;-72
2022/12/11 13:19:27;;;;;;;;;;;3.70;91.00;;;;;;5027061;28;19955;-71
2022/12/11 13:21:58;;;;;;;;;;;3.50;91.40;;;;;;5030484;28;19913;-72
2022/12/11 13:24:25;;;;;;;;;;;3.50;91.50;;;;;;5030054;28;20388;-72
2022/12/11 13:26:51;;;;;;;;;;;3.20;91.10;;;;;;5031141;28;20342;-72
2022/12/11 13:29:30;;;;;;;;;;;2.80;91.60;;;;;;5010839;28;19996;-73
2022/12/11 13:31:57;;;;;;;;;;;2.90;92.30;;;;;;5019280;28;19917;-74
2022/12/11 13:34:23;;;;;;;;;;;2.70;92.90;;;;;;5011827;28;20000;-73
2022/12/11 13:36:49;;;;;;;;;;;2.50;92.80;;;;;;5029096;28;20035;-73
2022/12/11 13:39:21;;;;;;;;;;;2.10;93.80;;;;;;5027723;28;19931;-74
2022/12/11 13:41:48;;;;;;;;;;;2.10;94.30;;;;;;4985068;28;19913;-74
2022/12/11 13:44:24;;;;;;;;;;;2.20;94.70;;;;;;5008253;28;19913;-74
2022/12/11 13:46:51;;;;;;;;;;;2.10;95.00;;;;;;5025659;28;20007;-73
2022/12/11 13:49:43;;;;;;;;;;;2.00;95.70;;;;;;5031933;28;19921;-72
2022/12/11 13:52:38;;;;;;;;;;;2.40;95.60;;;;;;5023752;28;19924;-72
2022/12/11 13:55:11;;;;;;;;;;;2.20;95.20;;;;;;5021646;28;20626;-72
2022/12/11 13:57:42;;;;;;;;;;;2.30;95.40;;;;;;5027948;28;19909;-73
2022/12/11 14:00:17;;;;;;;;;;;2.60;95.00;;;;;;5027058;28;19987;-72
2022/12/11 14:02:43;;;;;;;;;;;2.50;94.60;;;;;;5025019;28;19991;-73
2022/12/11 14:05:09;;;;;;;;;;;2.50;94.40;;;;;;5027368;28;20019;-72
2022/12/11 14:07:36;;;;;;;;;;;2.60;94.90;;;;;;5027211;28;19922;-73
2022/12/11 14:10:04;;;;;;;;;;;2.80;94.70;;;;;;5026207;28;20638;-75
2022/12/11 14:12:30;;;;;;;;;;;3.00;94.40;;;;;;5010416;28;19978;-74
2022/12/11 14:14:56;;;;;;;;;;;3.00;93.70;;;;;;5018163;28;19921;-74
2022/12/11 14:17:25;;;;;;;;;;;2.80;93.10;;;;;;5026612;28;19948;-74
2022/12/11 14:19:51;;;;;;;;;;;2.70;93.30;;;;;;5017077;28;20335;-73
2022/12/11 14:22:18;;;;;;;;;;;2.70;93.60;;;;;;5027558;28;19928;-74
2022/12/11 14:24:47;;;;;;;;;;;2.70;93.20;;;;;;5027484;28;20648;-74
2022/12/11 14:27:13;;;;;;;;;;;2.70;93.60;;;;;;5023293;28;19958;-73
2022/12/11 14:29:39;;;;;;;;;;;2.70;93.70;;;;;;5008436;28;19913;-74
2022/12/11 14:32:05;;;;;;;;;;;2.60;93.50;;;;;;5005866;28;20286;-74
2022/12/11 14:34:30;;;;;;;;;;;2.60;93.90;;;;;;5024464;28;19913;-74
2022/12/11 14:36:56;;;;;;;;;;;2.60;94.00;;;;;;5027409;28;20031;-74
2022/12/11 14:39:40;;;;;;;;;;;2.50;94.40;;;;;;5025500;28;20423;-74